Airfield :
LOGIN :

Register | Disclaimer

   EN    FR    IT 

 










Legend :    VFR   Marginal VFR   IFR   Intensive IFR   Very Intensive IFR
Visi :
Ceiling :
>= 8 km
>= 3000ft
5 to 8 km
1000 to 3000 ft
1500m to 5 km
500 to 1000 ft
800 to 1500m
200 to 500 ft
< 800m
< 200 ft
Symbols :   Thunderstorms  Fog  Heavy snow  Heavy precipitations  Wind > 20 kt
SIGMETs :     Misc.  Thunderstorms  Icing  Turbulence  Mountain Waves  Volcanic Ashes






- Airport Elevation : 370 ft


EBBE - Beauvechain AB

CURRENT METAR :
  • 301155Z 01003KT 3000 BR BKN004 BKN050 06/05 Q1024 YLO YLO BECMG GRN

EXPIRED METARs :
  • 301125Z 02003KT 3000 BR BKN004 BKN050 06/05 Q1024 YLO YLO
  • 301055Z VRB01KT 2000 BR BKN003 BKN050 05/05 Q1024 YLO YLO
  • 301025Z VRB02KT 1500 BR BKN002 OVC003 05/05 Q1024 AMB AMB BECMG YLO
  • 300955Z VRB01KT 1200 BR OVC002 05/05 Q1024 AMB AMB BECMG YLO
  • 300934Z VRB02KT 0800 FG OVC002 05/05 Q1024 AMB AMB TEMPO RED

TAF TAF EBBE
Valid from the 30 at 10:00 until the 30 at 19:00 UTC


300841Z 3010/3019 02005KT 2000 BR SCT005 OVC010
TEMPO 3010/3012 5000 BR -DZ FEW005 OVC010
BECMG 3012/3014 6000 NSW BKN010 OVC015
TEMPO 3014/3019 8000 FEW012 OVC015



MET'MAP, your aeronautical weather chart ! - Copyright ORBIFLY December 2007 - Disclaimer

ORBIFLY MET'MAP TEAM :

Programming & Development : Alexandra Zaïnal
Original concept : Baudouin d'Aumeries
Technical & hardware support : Manuel Goepfert
Assistance : Marc-Olivier Méhu




SOURCES & CREDITS :

   NOAA